Time;durP1;ratioP1;P1;durP2;ratioP2;P2;SDS_P1;SDS_P2;PMS_P1;PMS_P2;Temp;Humidity;BMP_temperature;BMP_pressure;BME280_temperature;BME280_humidity;BME280_pressure;Samples;Min_cycle;Max_cycle;Signal;HPM_P1;HPM_P2
2023/05/25 00:01:25;;;;;;;16.95;6.95;;;8.40;99.90;;;;;;4940112;28;20074;-85
2023/05/25 00:03:51;;;;;;;17.30;7.30;;;8.20;99.90;;;;;;4947456;28;20388;-85
2023/05/25 00:06:18;;;;;;;16.58;7.10;;;8.10;99.90;;;;;;4975555;28;20047;-85
2023/05/25 00:08:45;;;;;;;18.80;7.50;;;8.10;99.90;;;;;;4975001;28;20049;-84
2023/05/25 00:11:11;;;;;;;13.18;6.80;;;8.10;99.90;;;;;;4960792;28;20129;-85
2023/05/25 00:13:41;;;;;;;13.73;7.68;;;7.90;99.90;;;;;;4970922;28;20057;-85
2023/05/25 00:16:06;;;;;;;18.40;8.88;;;7.90;99.90;;;;;;4969530;28;20667;-85
2023/05/25 00:18:32;;;;;;;19.00;7.75;;;8.10;99.90;;;;;;4962414;28;20125;-85
2023/05/25 00:21:04;;;;;;;19.55;7.50;;;8.00;99.90;;;;;;4991479;28;20043;-86
2023/05/25 00:23:30;;;;;;;10.98;5.20;;;7.90;99.90;;;;;;4955980;28;20158;-85
2023/05/25 00:25:56;;;;;;;17.95;9.00;;;7.80;99.90;;;;;;4990293;28;20120;-86
2023/05/25 00:28:22;;;;;;;26.88;9.45;;;8.00;99.90;;;;;;4982226;28;20574;-86
2023/05/25 00:30:47;;;;;;;23.48;9.20;;;8.10;99.90;;;;;;4976854;28;20344;-86
2023/05/25 00:33:14;;;;;;;15.70;7.80;;;8.10;99.90;;;;;;4982008;28;20069;-86
2023/05/25 00:35:41;;;;;;;17.25;8.35;;;7.90;99.90;;;;;;4984828;28;20452;-86
2023/05/25 00:38:15;;;;;;;15.40;7.40;;;7.90;99.90;;;;;;4968581;28;20053;-86
2023/05/25 00:40:41;;;;;;;17.70;7.90;;;7.80;99.90;;;;;;4963562;28;20034;-86
2023/05/25 00:43:08;;;;;;;15.30;8.07;;;7.80;99.90;;;;;;4961801;28;20403;-86
2023/05/25 00:45:34;;;;;;;20.15;8.40;;;7.70;99.90;;;;;;4996088;28;20034;-86
2023/05/25 00:48:00;;;;;;;10.98;6.38;;;7.70;99.90;;;;;;4995608;28;20049;-86
2023/05/25 00:50:43;;;;;;;15.05;7.55;;;7.50;99.90;;;;;;4981701;28;20088;-86
2023/05/25 00:53:10;;;;;;;15.10;7.30;;;7.60;99.90;;;;;;4993872;28;20065;-87
2023/05/25 00:55:47;;;;;;;19.00;8.13;;;7.60;99.90;;;;;;4969203;28;20468;-86
2023/05/25 00:58:16;;;;;;;22.23;8.93;;;7.60;99.90;;;;;;4967749;28;20385;-86
2023/05/25 01:00:45;;;;;;;18.48;7.78;;;7.60;99.90;;;;;;4996204;28;20525;-86
2023/05/25 01:03:16;;;;;;;19.42;8.00;;;7.50;99.90;;;;;;4963349;28;20074;-86
2023/05/25 01:05:46;;;;;;;14.82;7.40;;;7.40;99.90;;;;;;4993824;28;20397;-86
2023/05/25 01:08:13;;;;;;;15.77;8.40;;;7.50;99.90;;;;;;4994017;28;20431;-86
2023/05/25 01:10:41;;;;;;;20.08;8.43;;;7.50;99.90;;;;;;4982199;28;20523;-86
2023/05/25 01:13:08;;;;;;;17.33;8.65;;;7.50;99.90;;;;;;4979415;28;20421;-86
2023/05/25 01:15:36;;;;;;;17.42;7.90;;;7.50;99.90;;;;;;4999810;28;20033;-87
2023/05/25 01:18:02;;;;;;;13.60;7.10;;;7.40;99.90;;;;;;4979509;28;20050;-86
2023/05/25 01:20:30;;;;;;;7.82;5.78;;;7.40;99.90;;;;;;4990669;28;20041;-86
2023/05/25 01:23:09;;;;;;;21.63;8.73;;;7.40;99.90;;;;;;4963412;28;20121;-86
2023/05/25 01:25:49;;;;;;;13.55;7.10;;;7.50;99.90;;;;;;4962590;28;20472;-87
2023/05/25 01:28:21;;;;;;;15.35;7.00;;;7.50;99.90;;;;;;4982220;28;20052;-86
2023/05/25 01:30:49;;;;;;;14.30;7.10;;;7.30;99.90;;;;;;4963666;28;20133;-87
2023/05/25 01:33:17;;;;;;;10.52;5.95;;;7.20;99.90;;;;;;4991006;28;20076;-87
2023/05/25 01:35:44;;;;;;;8.43;5.07;;;7.10;99.90;;;;;;5002389;28;20042;-87
2023/05/25 01:38:11;;;;;;;12.73;6.40;;;7.00;99.90;;;;;;4995906;28;20352;-87
2023/05/25 01:40:39;;;;;;;12.73;7.43;;;7.00;99.90;;;;;;4983245;28;20060;-87
2023/05/25 01:43:05;;;;;;;12.98;7.68;;;7.10;99.90;;;;;;4993727;28;20104;-88
2023/05/25 01:45:31;;;;;;;14.57;7.75;;;7.00;99.90;;;;;;4964373;28;20444;-87
2023/05/25 01:48:21;;;;;;;11.68;7.22;;;7.00;99.90;;;;;;4999176;28;20209;-87
2023/05/25 01:51:04;;;;;;;14.32;8.70;;;6.90;99.90;;;;;;4963778;28;20429;-87
2023/05/25 01:53:35;;;;;;;9.88;6.57;;;7.10;99.90;;;;;;4960329;28;20104;-86
2023/05/25 01:56:07;;;;;;;14.40;7.45;;;7.00;99.90;;;;;;4965791;28;20049;-87
2023/05/25 01:58:54;;;;;;;15.90;8.52;;;7.00;99.90;;;;;;4996895;28;20137;-87
2023/05/25 02:01:21;;;;;;;10.80;7.40;;;7.10;99.90;;;;;;4970144;28;20625;-87
2023/05/25 02:03:48;;;;;;;9.00;6.80;;;7.00;99.90;;;;;;4991912;28;20034;-87
2023/05/25 02:06:15;;;;;;;9.98;6.50;;;6.90;99.90;;;;;;4999459;28;20121;-87
2023/05/25 02:08:42;;;;;;;9.95;6.03;;;6.90;99.90;;;;;;4962536;28;20045;-87
2023/05/25 02:11:09;;;;;;;14.07;7.65;;;6.80;99.90;;;;;;4998924;28;20054;-87
2023/05/25 02:13:35;;;;;;;13.10;7.30;;;6.80;99.90;;;;;;4959777;28;20088;-88
2023/05/25 02:16:01;;;;;;;9.60;6.75;;;6.80;99.90;;;;;;4974084;28;20067;-87
2023/05/25 02:18:27;;;;;;;10.35;5.57;;;6.80;99.90;;;;;;4974262;28;20041;-87
2023/05/25 02:20:53;;;;;;;13.80;6.88;;;6.70;99.90;;;;;;4958900;28;20042;-86
2023/05/25 02:23:19;;;;;;;17.63;9.23;;;6.70;99.90;;;;;;4940952;28;20497;-87
2023/05/25 02:25:45;;;;;;;22.85;10.02;;;6.90;99.90;;;;;;4979055;28;20038;-87
2023/05/25 02:28:11;;;;;;;16.58;8.98;;;7.10;99.90;;;;;;4979394;28;20057;-86
2023/05/25 02:30:36;;;;;;;18.77;9.48;;;7.10;99.90;;;;;;4957173;28;20444;-87
2023/05/25 02:33:02;;;;;;;18.23;9.48;;;7.00;99.90;;;;;;4975641;28;20104;-87
2023/05/25 02:35:28;;;;;;;12.15;7.65;;;7.10;99.90;;;;;;4963053;28;20324;-87
2023/05/25 02:37:53;;;;;;;14.73;6.63;;;7.00;99.90;;;;;;4961836;28;20133;-86
2023/05/25 02:40:19;;;;;;;13.73;7.13;;;7.00;99.90;;;;;;4944414;28;20042;-88
2023/05/25 02:42:45;;;;;;;12.20;6.28;;;7.10;99.90;;;;;;4973912;28;20070;-87
2023/05/25 02:45:10;;;;;;;12.82;6.80;;;7.20;99.90;;;;;;4961928;28;20118;-87
2023/05/25 02:47:36;;;;;;;13.40;6.70;;;7.20;99.90;;;;;;4960506;28;20513;-87
2023/05/25 02:50:03;;;;;;;12.23;5.50;;;7.10;99.90;;;;;;4974195;28;20046;-87
2023/05/25 02:52:30;;;;;;;14.27;7.00;;;6.90;99.90;;;;;;4942499;28;20061;-89
2023/05/25 02:54:56;;;;;;;14.73;8.05;;;7.00;99.90;;;;;;4956379;28;20489;-87
2023/05/25 02:57:22;;;;;;;14.23;7.25;;;7.00;99.90;;;;;;4975747;28;20049;-87
2023/05/25 02:59:48;;;;;;;10.32;5.90;;;7.10;99.90;;;;;;4978747;28;20196;-87
2023/05/25 03:02:17;;;;;;;8.73;5.68;;;6.80;99.90;;;;;;4956632;28;20043;-87
2023/05/25 03:04:44;;;;;;;10.27;5.55;;;6.70;99.90;;;;;;4974009;28;20085;-87
2023/05/25 03:07:11;;;;;;;8.75;5.75;;;6.70;99.90;;;;;;4972166;28;20525;-87
2023/05/25 03:09:37;;;;;;;6.82;4.63;;;6.70;99.90;;;;;;4956880;28;20395;-87
2023/05/25 03:12:03;;;;;;;8.85;5.53;;;6.50;99.90;;;;;;4953851;28;20205;-87
2023/05/25 03:14:29;;;;;;;11.50;6.45;;;6.40;99.90;;;;;;4959044;28;20046;-88
2023/05/25 03:16:55;;;;;;;15.68;7.35;;;6.50;99.90;;;;;;4970193;28;21023;-87
2023/05/25 03:19:20;;;;;;;16.35;8.15;;;6.70;99.90;;;;;;4951741;28;20042;-88
2023/05/25 03:21:46;;;;;;;15.82;7.63;;;6.70;99.90;;;;;;4957613;28;20037;-87
2023/05/25 03:24:12;;;;;;;13.45;8.02;;;6.70;99.90;;;;;;4975479;28;20033;-87
2023/05/25 03:26:38;;;;;;;13.25;7.82;;;6.70;99.90;;;;;;4960015;28;20501;-88
2023/05/25 03:29:05;;;;;;;18.15;8.95;;;6.70;99.90;;;;;;4977108;28;20042;-89
2023/05/25 03:31:32;;;;;;;10.65;6.47;;;6.80;99.90;;;;;;4955249;28;20104;-88
2023/05/25 03:33:57;;;;;;;9.25;5.78;;;6.70;99.90;;;;;;4972367;28;20493;-87
2023/05/25 03:36:26;;;;;;;17.85;9.05;;;6.60;99.90;;;;;;4961775;28;20081;-88
2023/05/25 03:38:53;;;;;;;17.92;8.65;;;6.80;99.90;;;;;;4968348;28;20119;-87
2023/05/25 03:41:19;;;;;;;15.25;8.73;;;6.80;99.90;;;;;;4959465;28;20140;-88
2023/05/25 03:43:44;;;;;;;12.93;7.55;;;7.00;99.90;;;;;;4975926;28;20478;-88
2023/05/25 03:46:13;;;;;;;16.85;8.57;;;6.80;99.90;;;;;;4956422;28;20092;-88
2023/05/25 03:48:39;;;;;;;12.38;6.72;;;7.00;99.90;;;;;;4940124;28;20049;-87
2023/05/25 03:51:05;;;;;;;13.23;6.53;;;6.90;99.90;;;;;;4962014;28;20042;-88
2023/05/25 03:53:31;;;;;;;12.60;6.00;;;6.90;99.90;;;;;;4958816;28;20049;-88
2023/05/25 03:55:56;;;;;;;14.27;7.97;;;6.90;99.90;;;;;;4943823;28;20643;-88
2023/05/25 03:58:22;;;;;;;14.25;9.02;;;7.00;99.90;;;;;;4972085;28;20035;-88
2023/05/25 04:00:48;;;;;;;17.52;8.88;;;7.00;99.90;;;;;;4955624;28;20041;-88
2023/05/25 04:03:14;;;;;;;25.75;9.82;;;7.10;99.90;;;;;;4961604;28;20034;-88
2023/05/25 04:05:40;;;;;;;22.02;9.40;;;7.20;99.90;;;;;;4980363;28;20046;-88
2023/05/25 04:08:08;;;;;;;13.52;7.40;;;7.30;99.90;;;;;;4964576;28;20050;-88
2023/05/25 04:10:34;;;;;;;15.57;8.38;;;7.30;99.90;;;;;;4948127;28;20042;-88
2023/05/25 04:13:00;;;;;;;17.80;9.82;;;7.30;99.90;;;;;;4958077;28;20125;-88
2023/05/25 04:15:25;;;;;;;19.25;9.43;;;7.50;99.90;;;;;;4980956;28;20039;-88
2023/05/25 04:17:51;;;;;;;20.15;9.05;;;7.60;99.90;;;;;;4979789;28;20050;-88
2023/05/25 04:20:18;;;;;;;20.75;9.32;;;7.70;99.90;;;;;;4978416;28;20046;-88
2023/05/25 04:22:43;;;;;;;18.17;9.88;;;7.80;99.90;;;;;;4978927;28;20579;-88
2023/05/25 04:25:09;;;;;;;21.52;9.77;;;7.80;99.90;;;;;;4982647;28;20345;-88
2023/05/25 04:27:36;;;;;;;18.27;9.48;;;7.90;99.90;;;;;;4978689;28;20053;-88
2023/05/25 04:30:05;;;;;;;23.98;9.93;;;8.00;99.90;;;;;;4978234;28;20038;-87
2023/05/25 04:32:31;;;;;;;23.75;11.82;;;8.10;99.90;;;;;;4977656;28;20046;-87
2023/05/25 04:34:57;;;;;;;17.52;9.43;;;8.20;99.90;;;;;;4998528;28;20049;-88
2023/05/25 04:37:27;;;;;;;18.48;9.90;;;8.20;99.90;;;;;;4977821;28;20557;-86
2023/05/25 04:39:53;;;;;;;18.40;9.90;;;8.30;99.90;;;;;;4990341;28;20061;-88
2023/05/25 04:42:22;;;;;;;18.65;10.00;;;8.40;99.90;;;;;;4982312;28;20457;-87
2023/05/25 04:44:57;;;;;;;20.88;9.45;;;8.50;99.90;;;;;;4997510;28;20038;-87
2023/05/25 04:47:23;;;;;;;25.90;10.77;;;8.60;99.90;;;;;;4977784;28;20466;-88
2023/05/25 04:49:49;;;;;;;17.13;9.25;;;8.70;99.90;;;;;;4967057;28;20057;-88
2023/05/25 04:52:15;;;;;;;19.42;9.80;;;8.80;99.90;;;;;;4978709;28;20104;-87
2023/05/25 04:54:42;;;;;;;21.48;10.07;;;8.90;99.90;;;;;;4966136;28;20500;-88
2023/05/25 04:57:08;;;;;;;12.73;8.63;;;9.00;99.90;;;;;;4963021;28;20042;-87
2023/05/25 04:59:36;;;;;;;17.95;8.85;;;9.10;99.90;;;;;;4981653;28;20077;-88
2023/05/25 05:02:02;;;;;;;17.35;9.05;;;9.30;99.90;;;;;;4994278;28;20042;-88
2023/05/25 05:04:28;;;;;;;18.20;10.25;;;9.40;99.90;;;;;;4981872;28;20165;-87
2023/05/25 05:06:53;;;;;;;22.17;10.57;;;9.50;99.90;;;;;;4963868;28;20502;-87
2023/05/25 05:09:19;;;;;;;22.45;9.93;;;9.60;99.90;;;;;;4979777;28;20119;-87
2023/05/25 05:11:45;;;;;;;18.10;10.18;;;9.70;99.90;;;;;;4976404;28;20477;-87
2023/05/25 05:14:14;;;;;;;24.17;12.15;;;9.80;99.90;;;;;;4977552;28;20046;-87
2023/05/25 05:16:40;;;;;;;18.70;10.00;;;9.90;99.90;;;;;;4998803;28;20406;-87
2023/05/25 05:19:06;;;;;;;19.20;9.55;;;10.00;99.90;;;;;;4996222;28;20100;-87
2023/05/25 05:21:32;;;;;;;20.00;9.82;;;10.20;99.90;;;;;;4977373;28;20145;-87
2023/05/25 05:23:57;;;;;;;18.63;9.90;;;10.30;99.90;;;;;;4982262;28;20120;-87
2023/05/25 05:26:23;;;;;;;24.38;10.57;;;10.50;99.90;;;;;;4978417;28;20531;-87
2023/05/25 05:28:51;;;;;;;19.80;9.73;;;10.50;99.90;;;;;;4961905;28;20464;-87
2023/05/25 05:31:20;;;;;;;21.10;9.77;;;10.60;99.90;;;;;;4964625;28;20078;-87
2023/05/25 05:33:46;;;;;;;19.10;10.88;;;10.80;99.90;;;;;;4976427;28;20382;-87
2023/05/25 05:36:11;;;;;;;26.00;11.70;;;11.00;99.90;;;;;;4966086;28;20039;-87
2023/05/25 05:38:39;;;;;;;22.55;11.63;;;11.10;99.90;;;;;;4997076;28;20128;-87
2023/05/25 05:41:10;;;;;;;20.13;11.60;;;11.20;99.90;;;;;;4980988;28;20045;-87
2023/05/25 05:43:38;;;;;;;27.10;11.00;;;11.20;99.90;;;;;;4980655;28;20375;-87
2023/05/25 05:46:04;;;;;;;22.20;11.07;;;11.40;99.90;;;;;;4996853;28;20048;-87
2023/05/25 05:48:29;;;;;;;21.77;9.95;;;11.50;99.90;;;;;;4962506;28;20409;-87
2023/05/25 05:50:57;;;;;;;21.10;10.00;;;11.50;99.90;;;;;;4984088;28;20420;-87
2023/05/25 05:53:26;;;;;;;24.02;10.02;;;11.70;99.90;;;;;;4974508;28;20468;-87
2023/05/25 05:55:57;;;;;;;21.20;10.20;;;11.80;99.90;;;;;;4995435;28;20042;-87
2023/05/25 05:58:25;;;;;;;20.63;9.73;;;11.90;99.90;;;;;;4998059;28;20034;-86
2023/05/25 06:00:55;;;;;;;18.80;8.93;;;12.00;99.90;;;;;;4974088;28;20041;-87
2023/05/25 06:03:22;;;;;;;21.85;9.10;;;12.10;99.90;;;;;;4980255;28;20140;-86
2023/05/25 06:05:48;;;;;;;22.58;9.38;;;12.30;99.90;;;;;;4996851;28;20038;-87
2023/05/25 06:08:14;;;;;;;16.45;7.93;;;12.40;99.90;;;;;;4992154;28;20045;-86
2023/05/25 06:10:41;;;;;;;17.27;7.35;;;12.50;99.90;;;;;;4992796;28;20041;-86
2023/05/25 06:13:07;;;;;;;16.77;7.30;;;12.50;99.90;;;;;;4995992;28;20056;-86
2023/05/25 06:15:34;;;;;;;17.15;6.60;;;12.60;99.90;;;;;;4960918;28;20065;-86
2023/05/25 06:18:00;;;;;;;12.90;5.50;;;12.60;99.90;;;;;;4978732;28;20068;-86
2023/05/25 06:20:26;;;;;;;15.50;5.40;;;12.70;99.90;;;;;;4997339;28;20477;-85
2023/05/25 06:22:52;;;;;;;17.80;5.28;;;12.70;99.90;;;;;;4994500;28;20044;-85
2023/05/25 06:25:19;;;;;;;10.60;4.57;;;12.80;99.90;;;;;;4991029;28;20034;-86
2023/05/25 06:27:45;;;;;;;15.65;5.10;;;12.90;99.90;;;;;;4995698;28;20092;-85
2023/05/25 06:30:13;;;;;;;16.85;5.78;;;13.00;99.90;;;;;;4962244;28;20048;-85
2023/05/25 06:32:39;;;;;;;16.02;4.35;;;13.10;99.90;;;;;;4960112;28;20105;-85
2023/05/25 06:35:05;;;;;;;13.23;5.15;;;13.10;99.90;;;;;;4963156;28;20472;-85
2023/05/25 06:37:37;;;;;;;18.45;4.82;;;13.20;99.90;;;;;;4980602;28;20052;-85
2023/05/25 06:40:04;;;;;;;15.63;4.32;;;13.10;99.90;;;;;;4981362;28;20080;-86
2023/05/25 06:42:29;;;;;;;15.05;4.53;;;13.20;99.90;;;;;;4967950;28;20038;-85
2023/05/25 06:44:55;;;;;;;19.58;4.85;;;13.20;99.90;;;;;;4980626;28;20449;-86
2023/05/25 06:47:21;;;;;;;10.70;4.15;;;13.20;99.90;;;;;;4980013;28;20056;-85
2023/05/25 06:49:47;;;;;;;22.60;4.78;;;13.70;99.90;;;;;;4978892;28;20085;-86
2023/05/25 06:52:12;;;;;;;13.85;4.18;;;13.90;99.90;;;;;;4994985;28;20060;-85
2023/05/25 06:54:38;;;;;;;14.65;3.83;;;13.70;99.90;;;;;;4961562;28;20501;-85
2023/05/25 06:57:05;;;;;;;16.60;3.78;;;13.50;99.90;;;;;;4981110;28;20046;-84
2023/05/25 06:59:34;;;;;;;13.50;4.93;;;13.40;99.90;;;;;;4971333;28;20088;-85
2023/05/25 07:02:00;;;;;;;13.88;4.50;;;13.40;99.90;;;;;;4995175;28;20412;-85
2023/05/25 07:04:27;;;;;;;15.25;5.07;;;13.40;99.90;;;;;;4994411;28;20049;-84
2023/05/25 07:06:53;;;;;;;16.98;4.32;;;13.40;99.90;;;;;;4968992;28;20070;-86
2023/05/25 07:09:18;;;;;;;11.95;4.10;;;13.60;99.90;;;;;;4972013;28;20174;-85
2023/05/25 07:11:44;;;;;;;14.07;3.97;;;13.70;99.90;;;;;;4988878;28;20082;-85
2023/05/25 07:14:10;;;;;;;18.17;4.85;;;13.80;99.90;;;;;;4987282;28;20998;-84
2023/05/25 07:16:35;;;;;;;16.33;4.30;;;13.60;99.90;;;;;;4974718;28;20053;-84
2023/05/25 07:19:01;;;;;;;18.17;5.43;;;14.10;99.90;;;;;;4975927;28;20112;-85
2023/05/25 07:21:35;;;;;;;11.27;4.35;;;13.80;99.90;;;;;;4975942;28;20630;-85
2023/05/25 07:24:04;;;;;;;16.80;4.88;;;13.60;99.90;;;;;;4980529;28;20068;-85
2023/05/25 07:26:30;;;;;;;16.85;4.90;;;13.90;99.90;;;;;;4992166;28;20449;-85
2023/05/25 07:28:56;;;;;;;15.10;4.35;;;13.90;99.90;;;;;;4974900;28;20492;-85
2023/05/25 07:31:23;;;;;;;19.40;5.15;;;14.10;99.90;;;;;;4993166;28;20034;-85
2023/05/25 07:33:49;;;;;;;14.68;4.35;;;14.00;99.90;;;;;;4963476;28;20154;-85
2023/05/25 07:36:15;;;;;;;16.33;4.68;;;14.20;99.90;;;;;;4980797;28;20046;-85
2023/05/25 07:38:41;;;;;;;20.92;5.60;;;14.50;99.90;;;;;;4963161;28;20047;-86
2023/05/25 07:41:12;;;;;;;15.15;4.53;;;14.40;99.90;;;;;;4995128;28;20053;-85
2023/05/25 07:43:38;;;;;;;17.30;4.28;;;14.70;99.90;;;;;;4990599;28;20041;-86
2023/05/25 07:46:03;;;;;;;18.70;5.00;;;14.60;99.90;;;;;;4986914;28;20219;-84
2023/05/25 07:48:29;;;;;;;16.45;4.47;;;14.30;99.90;;;;;;4977826;28;20046;-84
2023/05/25 07:50:55;;;;;;;17.98;4.53;;;14.20;99.90;;;;;;4996002;28;20041;-85
2023/05/25 07:53:21;;;;;;;23.17;4.82;;;14.20;99.90;;;;;;4993932;28;20402;-84
2023/05/25 07:55:46;;;;;;;18.40;4.45;;;14.50;99.90;;;;;;4996461;28;20033;-85
2023/05/25 07:58:15;;;;;;;18.77;4.60;;;14.20;99.90;;;;;;4997473;28;20206;-85
2023/05/25 08:00:42;;;;;;;18.45;4.75;;;14.70;99.90;;;;;;4976452;28;20562;-84
2023/05/25 08:03:08;;;;;;;18.88;4.60;;;14.70;99.90;;;;;;4979044;28;20038;-84
2023/05/25 08:05:34;;;;;;;21.85;4.78;;;15.00;99.90;;;;;;4976761;28;20089;-85
2023/05/25 08:07:59;;;;;;;19.35;4.88;;;15.40;99.90;;;;;;4993184;28;20052;-85
2023/05/25 08:10:31;;;;;;;23.75;4.97;;;15.40;99.90;;;;;;4964995;28;20391;-84
2023/05/25 08:12:57;;;;;;;18.63;4.55;;;14.70;99.90;;;;;;4977274;28;20050;-83
2023/05/25 08:15:26;;;;;;;18.85;4.75;;;14.30;99.90;;;;;;4989410;28;20058;-84
2023/05/25 08:17:52;;;;;;;23.02;5.22;;;14.10;99.90;;;;;;4961415;28;20037;-84
2023/05/25 08:20:18;;;;;;;21.38;4.82;;;14.50;99.90;;;;;;4979719;28;20060;-84
2023/05/25 08:22:47;;;;;;;19.95;5.30;;;14.90;99.90;;;;;;4976735;28;20397;-83
2023/05/25 08:25:12;;;;;;;21.05;5.10;;;15.30;99.90;;;;;;4972279;28;20285;-85
2023/05/25 08:27:38;;;;;;;23.08;4.25;;;15.20;99.90;;;;;;4997708;28;20641;-84
2023/05/25 08:30:04;;;;;;;18.08;4.57;;;14.90;99.90;;;;;;4998049;28;20054;-84
2023/05/25 08:32:30;;;;;;;19.88;4.43;;;15.40;99.90;;;;;;4974930;28;20092;-84
2023/05/25 08:34:56;;;;;;;16.27;5.07;;;14.90;99.90;;;;;;4977001;28;20069;-83
2023/05/25 08:37:23;;;;;;;21.27;5.50;;;14.70;99.90;;;;;;4960118;28;20469;-84
2023/05/25 08:39:49;;;;;;;21.27;4.40;;;14.20;99.90;;;;;;4994519;28;20030;-84
2023/05/25 08:42:15;;;;;;;24.90;5.30;;;14.20;99.90;;;;;;4975944;28;20865;-84
2023/05/25 08:44:41;;;;;;;22.00;5.32;;;14.00;99.90;;;;;;4976231;28;20505;-85
2023/05/25 08:47:07;;;;;;;22.08;5.60;;;13.90;99.90;;;;;;4978623;28;20508;-84
2023/05/25 08:49:38;;;;;;;21.25;5.25;;;14.30;99.90;;;;;;4984116;28;20037;-84
2023/05/25 08:52:05;;;;;;;21.42;5.30;;;14.80;99.90;;;;;;4982980;28;20304;-84
2023/05/25 08:54:34;;;;;;;15.23;4.57;;;15.00;99.90;;;;;;4977279;28;20050;-84
2023/05/25 08:57:22;;;;;;;21.35;5.03;;;14.90;99.90;;;;;;4968240;28;20137;-84
2023/05/25 09:00:14;;;;;;;20.00;5.70;;;15.10;99.90;;;;;;4999866;28;20034;-84
2023/05/25 09:02:53;;;;;;;23.40;5.45;;;15.10;99.90;;;;;;4995517;28;20100;-83
2023/05/25 09:05:19;;;;;;;17.60;4.95;;;15.10;99.90;;;;;;5000405;28;20504;-83
2023/05/25 09:07:46;;;;;;;18.00;4.97;;;14.60;1.00;;;;;;4963663;28;20052;-84
2023/05/25 09:10:16;;;;;;;19.02;5.18;;;14.60;99.90;;;;;;4984412;28;20095;-84
2023/05/25 09:12:42;;;;;;;19.48;5.22;;;14.60;99.90;;;;;;4993788;28;20421;-85
2023/05/25 09:15:14;;;;;;;20.48;4.93;;;15.10;99.90;;;;;;4982592;28;20046;-84
2023/05/25 09:17:40;;;;;;;19.60;4.95;;;15.10;99.90;;;;;;4958678;28;20057;-84
2023/05/25 09:20:12;;;;;;;19.50;5.32;;;15.10;62.70;;;;;;4993794;28;20398;-84
2023/05/25 09:22:39;;;;;;;17.40;4.88;;;15.30;36.00;;;;;;4994010;28;20052;-84
2023/05/25 09:25:09;;;;;;;21.27;4.95;;;15.50;50.30;;;;;;4981984;28;20080;-83
2023/05/25 09:27:39;;;;;;;23.45;5.20;;;15.40;99.90;;;;;;4992807;28;20895;-84
2023/05/25 09:30:05;;;;;;;18.95;4.53;;;14.90;99.90;;;;;;4983608;28;20124;-84
2023/05/25 09:32:31;;;;;;;17.42;5.00;;;14.70;1.00;;;;;;4991070;28;20050;-84
2023/05/25 09:35:12;;;;;;;21.00;5.45;;;14.80;1.00;;;;;;4994919;28;20567;-84
2023/05/25 09:37:43;;;;;;;22.67;5.40;;;14.80;99.90;;;;;;4975467;28;20493;-84
2023/05/25 09:40:09;;;;;;;20.70;4.72;;;14.70;99.90;;;;;;4965795;28;20055;-84
2023/05/25 09:42:37;;;;;;;16.73;4.80;;;15.50;47.60;;;;;;5000777;28;20033;-85
2023/05/25 09:45:03;;;;;;;15.55;4.68;;;15.10;99.90;;;;;;4961141;28;20042;-84
2023/05/25 09:47:30;;;;;;;19.63;5.03;;;15.00;99.90;;;;;;4975411;28;20648;-84
2023/05/25 09:49:59;;;;;;;20.50;5.00;;;15.40;18.00;;;;;;4968948;28;20215;-84
2023/05/25 09:52:25;;;;;;;18.88;4.88;;;15.50;99.90;;;;;;4958773;28;20037;-84
2023/05/25 09:54:51;;;;;;;17.08;4.70;;;15.70;99.90;;;;;;4967242;28;20069;-85
2023/05/25 09:57:18;;;;;;;17.80;4.68;;;15.20;74.40;;;;;;4963486;28;20050;-84
2023/05/25 09:59:45;;;;;;;18.15;4.78;;;15.30;99.90;;;;;;4994179;28;20088;-84
2023/05/25 10:02:14;;;;;;;20.58;5.20;;;15.60;1.00;;;;;;4963261;28;20064;-84
2023/05/25 10:04:40;;;;;;;17.50;4.32;;;15.40;99.90;;;;;;4981272;28;20044;-84
2023/05/25 10:07:07;;;;;;;14.07;4.43;;;15.50;99.90;;;;;;4996293;28;20046;-84
2023/05/25 10:09:42;;;;;;;19.83;5.10;;;15.60;1.00;;;;;;4966338;28;20041;-84
2023/05/25 10:12:08;;;;;;;19.38;4.57;;;15.00;1.00;;;;;;4996990;28;20328;-84
2023/05/25 10:14:36;;;;;;;18.85;4.68;;;15.10;99.90;;;;;;4977971;28;20087;-85
2023/05/25 10:17:05;;;;;;;19.38;4.82;;;16.30;99.90;;;;;;4982685;28;20046;-84
2023/05/25 10:19:44;;;;;;;13.52;4.85;;;16.50;99.90;;;;;;4981596;28;20111;-84
2023/05/25 10:22:30;;;;;;;22.10;4.75;;;15.70;99.90;;;;;;4963034;28;20033;-84
2023/05/25 10:25:22;;;;;;;18.70;4.90;;;15.70;99.90;;;;;;4984031;28;20104;-86
2023/05/25 10:28:01;;;;;;;18.38;4.60;;;16.20;99.90;;;;;;4978839;28;20046;-86
2023/05/25 10:30:27;;;;;;;21.60;5.38;;;16.90;87.70;;;;;;4997694;28;20038;-84
2023/05/25 10:32:56;;;;;;;22.10;5.57;;;15.80;7.90;;;;;;4976674;28;20501;-84
2023/05/25 10:35:23;;;;;;;23.02;5.13;;;15.50;1.00;;;;;;4994569;28;20061;-85
2023/05/25 10:37:53;;;;;;;19.60;5.03;;;15.40;99.90;;;;;;4993125;28;20054;-84
2023/05/25 10:40:22;;;;;;;20.48;6.70;;;15.60;99.90;;;;;;4977981;28;20258;-84
2023/05/25 10:43:10;;;;;;;21.77;5.88;;;15.10;99.90;;;;;;4999078;28;20084;-85
2023/05/25 10:45:36;;;;;;;24.02;5.60;;;15.10;99.90;;;;;;4963399;28;20033;-84
2023/05/25 10:48:02;;;;;;;16.25;4.82;;;15.90;1.00;;;;;;4989900;28;20042;-85
2023/05/25 10:50:34;;;;;;;17.15;4.93;;;16.80;99.90;;;;;;4960723;28;20041;-85
2023/05/25 10:53:00;;;;;;;23.30;4.90;;;16.90;99.90;;;;;;4991084;28;20034;-84
2023/05/25 10:55:30;;;;;;;19.42;4.45;;;16.00;99.90;;;;;;4964929;28;20054;-85
2023/05/25 10:58:14;;;;;;;18.13;5.22;;;15.80;29.60;;;;;;4973215;28;20158;-84
2023/05/25 11:00:40;;;;;;;18.08;4.97;;;16.50;99.90;;;;;;4960420;28;20655;-85
2023/05/25 11:03:06;;;;;;;18.10;4.68;;;16.40;99.90;;;;;;4966480;28;20536;-85
2023/05/25 11:05:37;;;;;;;23.30;5.30;;;16.80;1.00;;;;;;4967986;28;20507;-85
2023/05/25 11:08:05;;;;;;;17.75;4.43;;;16.60;1.00;;;;;;4993713;28;20108;-85
2023/05/25 11:10:43;;;;;;;18.35;4.90;;;16.40;14.70;;;;;;4978892;28;20117;-84
2023/05/25 11:13:31;;;;;;;19.52;5.00;;;16.70;99.90;;;;;;4995210;28;20046;-85
2023/05/25 11:16:12;;;;;;;17.63;4.97;;;17.30;1.00;;;;;;4982084;28;20044;-84
2023/05/25 11:18:42;;;;;;;21.88;5.20;;;16.80;92.90;;;;;;4993015;28;20251;-85
2023/05/25 11:21:39;;;;;;;17.35;4.80;;;15.80;99.90;;;;;;4979305;28;20053;-85
2023/05/25 11:24:14;;;;;;;16.55;5.25;;;15.70;1.00;;;;;;4956443;28;20146;-84
2023/05/25 11:26:56;;;;;;;21.50;4.63;;;16.90;99.90;;;;;;4996910;28;20053;-86
2023/05/25 11:29:25;;;;;;;15.55;4.47;;;17.20;99.90;;;;;;4964704;28;20100;-85
2023/05/25 11:31:55;;;;;;;19.00;5.10;;;18.40;1.00;;;;;;4961298;28;20402;-85
2023/05/25 11:34:24;;;;;;;18.95;4.43;;;17.70;1.00;;;;;;4996465;28;20465;-84
2023/05/25 11:37:00;;;;;;;19.02;4.60;;;16.50;99.90;;;;;;4989403;28;20038;-84
2023/05/25 11:39:27;;;;;;;18.92;5.05;;;16.30;99.90;;;;;;4986515;28;20445;-85
2023/05/25 11:41:55;;;;;;;21.33;5.07;;;16.30;99.90;;;;;;4980103;28;20042;-84
2023/05/25 11:44:29;;;;;;;21.85;5.20;;;16.60;99.90;;;;;;4959514;28;20044;-84
2023/05/25 11:47:17;;;;;;;14.30;4.20;;;17.00;99.90;;;;;;4973322;28;20065;-86
2023/05/25 11:49:45;;;;;;;17.98;4.53;;;15.70;99.90;;;;;;4992489;28;20538;-84
2023/05/25 11:52:13;;;;;;;19.95;4.55;;;15.40;99.90;;;;;;4989916;28;20100;-84
2023/05/25 11:54:40;;;;;;;17.60;4.93;;;16.50;99.90;;;;;;4991009;28;20050;-84
2023/05/25 11:57:25;;;;;;;21.63;5.65;;;16.20;99.90;;;;;;4980649;28;20076;-84
2023/05/25 12:00:05;;;;;;;20.23;4.95;;;17.30;99.90;;;;;;4977966;28;20038;-85
2023/05/25 12:02:37;;;;;;;16.25;4.80;;;16.60;99.90;;;;;;4990292;28;20049;-84
2023/05/25 12:05:02;;;;;;;16.33;4.88;;;17.10;99.90;;;;;;4996477;28;20319;-85
2023/05/25 12:07:29;;;;;;;18.92;5.38;;;16.00;1.00;;;;;;4958046;28;20289;-85
2023/05/25 12:10:06;;;;;;;16.85;4.97;;;15.40;1.00;;;;;;4976176;28;20044;-84
2023/05/25 12:12:40;;;;;;;20.25;4.65;;;16.80;1.00;;;;;;4987815;28;20062;-84
2023/05/25 12:15:11;;;;;;;18.08;5.18;;;17.10;99.90;;;;;;4985161;28;20046;-85
2023/05/25 12:17:40;;;;;;;15.27;4.40;;;17.60;1.00;;;;;;4970375;28;20043;-84
2023/05/25 12:20:07;;;;;;;17.73;4.30;;;18.60;6.20;;;;;;4972285;28;20076;-84
2023/05/25 12:22:34;;;;;;;16.98;5.10;;;16.80;99.90;;;;;;4974626;28;20040;-84
2023/05/25 12:25:00;;;;;;;22.58;4.90;;;16.10;79.60;;;;;;4977730;28;20096;-84
2023/05/25 12:27:26;;;;;;;16.63;4.82;;;16.60;59.00;;;;;;4976133;28;20070;-85
2023/05/25 12:29:52;;;;;;;18.92;5.03;;;16.30;99.90;;;;;;4962960;28;20072;-85
2023/05/25 12:32:18;;;;;;;16.92;4.93;;;16.00;1.00;;;;;;4971455;28;20469;-85
2023/05/25 12:34:44;;;;;;;17.52;5.20;;;16.40;99.90;;;;;;4977240;28;20038;-84
2023/05/25 12:37:20;;;;;;;17.25;4.97;;;17.10;99.90;;;;;;4990365;28;20149;-84
2023/05/25 12:39:47;;;;;;;20.88;4.80;;;17.40;99.90;;;;;;4971288;28;20405;-84
2023/05/25 12:42:15;;;;;;;20.33;4.88;;;18.20;99.90;;;;;;4976356;28;20397;-85
2023/05/25 12:44:42;;;;;;;18.85;5.70;;;16.90;99.90;;;;;;4988785;28;20452;-84
2023/05/25 12:47:18;;;;;;;22.17;4.95;;;16.90;99.90;;;;;;4974827;28;20646;-84